sensor_id;sensor_type;location;lat;lon;timestamp;temperature;humidity
1546;DHT22;766;51.502;9.752;2024-02-26T00:00:03;2.40;99.90
1546;DHT22;766;51.502;9.752;2024-02-26T00:02:36;2.50;99.90
1546;DHT22;766;51.502;9.752;2024-02-26T00:05:06;2.60;99.90
1546;DHT22;766;51.502;9.752;2024-02-26T00:07:35;2.60;99.90
1546;DHT22;766;51.502;9.752;2024-02-26T00:10:06;2.60;99.90
1546;DHT22;766;51.502;9.752;2024-02-26T00:12:36;2.60;99.90
1546;DHT22;766;51.502;9.752;2024-02-26T00:15:06;2.60;99.90
1546;DHT22;766;51.502;9.752;2024-02-26T00:17:34;2.60;99.90
1546;DHT22;766;51.502;9.752;2024-02-26T00:20:04;2.60;99.90
1546;DHT22;766;51.502;9.752;2024-02-26T00:22:36;2.70;99.90
1546;DHT22;766;51.502;9.752;2024-02-26T00:25:06;2.80;99.90
1546;DHT22;766;51.502;9.752;2024-02-26T00:27:34;2.80;99.90
1546;DHT22;766;51.502;9.752;2024-02-26T00:30:07;2.90;99.90
1546;DHT22;766;51.502;9.752;2024-02-26T00:32:35;2.90;99.90
1546;DHT22;766;51.502;9.752;2024-02-26T00:35:04;2.90;99.90
1546;DHT22;766;51.502;9.752;2024-02-26T00:37:33;2.90;99.90
1546;DHT22;766;51.502;9.752;2024-02-26T00:40:01;2.90;99.90
1546;DHT22;766;51.502;9.752;2024-02-26T00:42:31;2.90;99.90
1546;DHT22;766;51.502;9.752;2024-02-26T00:44:59;2.90;99.90
1546;DHT22;766;51.502;9.752;2024-02-26T00:47:27;2.90;99.90
1546;DHT22;766;51.502;9.752;2024-02-26T00:49:55;2.80;99.90
1546;DHT22;766;51.502;9.752;2024-02-26T00:52:24;2.80;99.90
1546;DHT22;766;51.502;9.752;2024-02-26T00:54:52;2.80;99.90
1546;DHT22;766;51.502;9.752;2024-02-26T00:57:20;2.90;99.90
1546;DHT22;766;51.502;9.752;2024-02-26T00:59:50;2.80;99.90
1546;DHT22;766;51.502;9.752;2024-02-26T01:02:20;2.80;99.90
1546;DHT22;766;51.502;9.752;2024-02-26T01:04:48;2.80;99.90
1546;DHT22;766;51.502;9.752;2024-02-26T01:07:17;2.80;99.90
1546;DHT22;766;51.502;9.752;2024-02-26T01:09:45;2.80;99.90
1546;DHT22;766;51.502;9.752;2024-02-26T01:12:13;2.80;99.90
1546;DHT22;766;51.502;9.752;2024-02-26T01:14:42;2.70;99.90
1546;DHT22;766;51.502;9.752;2024-02-26T01:17:12;2.70;99.90
1546;DHT22;766;51.502;9.752;2024-02-26T01:19:40;2.60;99.90
1546;DHT22;766;51.502;9.752;2024-02-26T01:22:08;2.50;99.90
1546;DHT22;766;51.502;9.752;2024-02-26T01:24:36;2.50;99.90
1546;DHT22;766;51.502;9.752;2024-02-26T01:27:04;2.50;99.90
1546;DHT22;766;51.502;9.752;2024-02-26T01:29:34;2.50;99.90
1546;DHT22;766;51.502;9.752;2024-02-26T01:32:03;2.50;99.90
1546;DHT22;766;51.502;9.752;2024-02-26T01:34:34;2.50;99.90
1546;DHT22;766;51.502;9.752;2024-02-26T01:37:04;2.50;99.90
1546;DHT22;766;51.502;9.752;2024-02-26T01:39:32;2.50;99.90
1546;DHT22;766;51.502;9.752;2024-02-26T01:42:00;2.60;99.90
1546;DHT22;766;51.502;9.752;2024-02-26T01:44:29;2.70;99.90
1546;DHT22;766;51.502;9.752;2024-02-26T01:46:57;2.80;99.90
1546;DHT22;766;51.502;9.752;2024-02-26T01:49:25;2.80;99.90
1546;DHT22;766;51.502;9.752;2024-02-26T01:51:55;2.80;99.90
1546;DHT22;766;51.502;9.752;2024-02-26T01:54:23;2.90;99.90
1546;DHT22;766;51.502;9.752;2024-02-26T01:56:51;2.90;99.90
1546;DHT22;766;51.502;9.752;2024-02-26T01:59:20;2.90;99.90
1546;DHT22;766;51.502;9.752;2024-02-26T02:01:54;2.90;99.90
1546;DHT22;766;51.502;9.752;2024-02-26T02:04:23;2.90;99.90
1546;DHT22;766;51.502;9.752;2024-02-26T02:06:52;2.80;99.90
1546;DHT22;766;51.502;9.752;2024-02-26T02:09:22;2.80;99.90
1546;DHT22;766;51.502;9.752;2024-02-26T02:11:50;2.80;99.90
1546;DHT22;766;51.502;9.752;2024-02-26T02:14:18;2.80;99.90
1546;DHT22;766;51.502;9.752;2024-02-26T02:16:47;2.80;99.90
1546;DHT22;766;51.502;9.752;2024-02-26T02:19:15;2.90;99.90
1546;DHT22;766;51.502;9.752;2024-02-26T02:21:45;2.90;99.90
1546;DHT22;766;51.502;9.752;2024-02-26T02:24:13;2.90;99.90
1546;DHT22;766;51.502;9.752;2024-02-26T02:26:41;2.90;99.90
1546;DHT22;766;51.502;9.752;2024-02-26T02:29:10;2.90;99.90
1546;DHT22;766;51.502;9.752;2024-02-26T02:31:39;2.90;99.90
1546;DHT22;766;51.502;9.752;2024-02-26T02:34:08;3.00;99.90
1546;DHT22;766;51.502;9.752;2024-02-26T02:36:51;3.00;99.90
1546;DHT22;766;51.502;9.752;2024-02-26T02:39:19;3.00;99.90
1546;DHT22;766;51.502;9.752;2024-02-26T02:41:48;3.00;99.90
1546;DHT22;766;51.502;9.752;2024-02-26T02:44:16;2.90;99.90
1546;DHT22;766;51.502;9.752;2024-02-26T02:46:44;2.90;99.90
1546;DHT22;766;51.502;9.752;2024-02-26T02:49:12;2.90;99.90
1546;DHT22;766;51.502;9.752;2024-02-26T02:51:41;2.80;99.90
1546;DHT22;766;51.502;9.752;2024-02-26T02:54:11;2.80;99.90
1546;DHT22;766;51.502;9.752;2024-02-26T02:56:39;2.70;99.90
1546;DHT22;766;51.502;9.752;2024-02-26T02:59:09;2.70;99.90
1546;DHT22;766;51.502;9.752;2024-02-26T03:01:37;2.70;99.90
1546;DHT22;766;51.502;9.752;2024-02-26T03:04:05;2.70;99.90
1546;DHT22;766;51.502;9.752;2024-02-26T03:06:34;2.70;99.90
1546;DHT22;766;51.502;9.752;2024-02-26T03:09:02;2.70;99.90
1546;DHT22;766;51.502;9.752;2024-02-26T03:11:32;2.70;99.90
1546;DHT22;766;51.502;9.752;2024-02-26T03:14:00;2.70;99.90
1546;DHT22;766;51.502;9.752;2024-02-26T03:16:29;2.60;99.90
1546;DHT22;766;51.502;9.752;2024-02-26T03:18:57;2.70;99.90
1546;DHT22;766;51.502;9.752;2024-02-26T03:21:26;2.70;99.90
1546;DHT22;766;51.502;9.752;2024-02-26T03:23:55;2.80;99.90
1546;DHT22;766;51.502;9.752;2024-02-26T03:26:24;2.80;99.90
1546;DHT22;766;51.502;9.752;2024-02-26T03:28:53;2.90;99.90
1546;DHT22;766;51.502;9.752;2024-02-26T03:31:22;2.90;99.90
1546;DHT22;766;51.502;9.752;2024-02-26T03:33:52;2.90;99.90
1546;DHT22;766;51.502;9.752;2024-02-26T03:36:20;2.90;99.90
1546;DHT22;766;51.502;9.752;2024-02-26T03:38:52;2.90;99.90
1546;DHT22;766;51.502;9.752;2024-02-26T03:41:20;2.90;99.90
1546;DHT22;766;51.502;9.752;2024-02-26T03:43:48;2.90;99.90
1546;DHT22;766;51.502;9.752;2024-02-26T03:46:18;2.90;99.90
1546;DHT22;766;51.502;9.752;2024-02-26T03:48:49;3.00;99.90
1546;DHT22;766;51.502;9.752;2024-02-26T03:51:18;3.00;99.90
1546;DHT22;766;51.502;9.752;2024-02-26T03:53:46;3.00;99.90
1546;DHT22;766;51.502;9.752;2024-02-26T03:56:14;3.00;99.90
1546;DHT22;766;51.502;9.752;2024-02-26T03:58:43;3.00;99.90
1546;DHT22;766;51.502;9.752;2024-02-26T04:01:11;3.00;99.90
1546;DHT22;766;51.502;9.752;2024-02-26T04:03:41;3.00;99.90
1546;DHT22;766;51.502;9.752;2024-02-26T04:06:11;3.00;99.90
1546;DHT22;766;51.502;9.752;2024-02-26T04:08:41;3.10;99.90
1546;DHT22;766;51.502;9.752;2024-02-26T04:11:10;3.10;99.90
1546;DHT22;766;51.502;9.752;2024-02-26T04:13:38;3.10;99.90
1546;DHT22;766;51.502;9.752;2024-02-26T04:16:07;3.10;99.90
1546;DHT22;766;51.502;9.752;2024-02-26T04:18:35;3.10;99.90
1546;DHT22;766;51.502;9.752;2024-02-26T04:21:07;3.10;99.90
1546;DHT22;766;51.502;9.752;2024-02-26T04:23:35;3.20;99.90
1546;DHT22;766;51.502;9.752;2024-02-26T04:26:04;3.20;99.90
1546;DHT22;766;51.502;9.752;2024-02-26T04:28:33;3.20;99.90
1546;DHT22;766;51.502;9.752;2024-02-26T04:31:02;3.20;99.90
1546;DHT22;766;51.502;9.752;2024-02-26T04:33:33;3.30;99.90
1546;DHT22;766;51.502;9.752;2024-02-26T04:36:13;3.30;99.90
1546;DHT22;766;51.502;9.752;2024-02-26T04:38:43;3.30;99.90
1546;DHT22;766;51.502;9.752;2024-02-26T04:41:12;3.30;99.90
1546;DHT22;766;51.502;9.752;2024-02-26T04:43:40;3.30;99.90
1546;DHT22;766;51.502;9.752;2024-02-26T04:46:10;3.30;99.90
1546;DHT22;766;51.502;9.752;2024-02-26T04:48:39;3.30;99.90
1546;DHT22;766;51.502;9.752;2024-02-26T04:51:10;3.30;99.90
1546;DHT22;766;51.502;9.752;2024-02-26T04:53:39;3.30;99.90
1546;DHT22;766;51.502;9.752;2024-02-26T04:56:09;3.30;99.90
1546;DHT22;766;51.502;9.752;2024-02-26T04:58:37;3.30;99.90
1546;DHT22;766;51.502;9.752;2024-02-26T05:01:07;3.30;99.90
1546;DHT22;766;51.502;9.752;2024-02-26T05:03:37;3.30;99.90
1546;DHT22;766;51.502;9.752;2024-02-26T05:06:07;3.30;99.90
1546;DHT22;766;51.502;9.752;2024-02-26T05:08:40;3.30;99.90
1546;DHT22;766;51.502;9.752;2024-02-26T05:11:11;3.30;99.90
1546;DHT22;766;51.502;9.752;2024-02-26T05:13:39;3.30;99.90
1546;DHT22;766;51.502;9.752;2024-02-26T05:16:08;3.30;99.90
1546;DHT22;766;51.502;9.752;2024-02-26T05:18:37;3.30;99.90
1546;DHT22;766;51.502;9.752;2024-02-26T05:21:06;3.20;99.90
1546;DHT22;766;51.502;9.752;2024-02-26T05:23:37;3.20;99.90
1546;DHT22;766;51.502;9.752;2024-02-26T05:26:07;3.20;99.90
1546;DHT22;766;51.502;9.752;2024-02-26T05:28:35;3.20;99.90
1546;DHT22;766;51.502;9.752;2024-02-26T05:31:12;3.20;99.90
1546;DHT22;766;51.502;9.752;2024-02-26T05:33:43;3.30;99.90
1546;DHT22;766;51.502;9.752;2024-02-26T05:36:18;3.20;99.90
1546;DHT22;766;51.502;9.752;2024-02-26T05:38:48;3.20;99.90
1546;DHT22;766;51.502;9.752;2024-02-26T05:41:22;3.10;99.90
1546;DHT22;766;51.502;9.752;2024-02-26T05:43:53;3.10;99.90
1546;DHT22;766;51.502;9.752;2024-02-26T05:46:22;3.20;99.90
1546;DHT22;766;51.502;9.752;2024-02-26T05:48:52;3.20;99.90
1546;DHT22;766;51.502;9.752;2024-02-26T05:51:21;3.20;99.90
1546;DHT22;766;51.502;9.752;2024-02-26T05:53:50;3.20;99.90
1546;DHT22;766;51.502;9.752;2024-02-26T05:56:23;3.20;99.90
1546;DHT22;766;51.502;9.752;2024-02-26T05:58:52;3.20;99.90
1546;DHT22;766;51.502;9.752;2024-02-26T06:01:21;3.20;99.90
1546;DHT22;766;51.502;9.752;2024-02-26T06:03:51;3.20;99.90
1546;DHT22;766;51.502;9.752;2024-02-26T06:06:23;3.20;99.90
1546;DHT22;766;51.502;9.752;2024-02-26T06:08:52;3.20;99.90
1546;DHT22;766;51.502;9.752;2024-02-26T06:11:22;3.20;99.90
1546;DHT22;766;51.502;9.752;2024-02-26T06:13:51;3.20;99.90
1546;DHT22;766;51.502;9.752;2024-02-26T06:16:19;3.20;99.90
1546;DHT22;766;51.502;9.752;2024-02-26T06:18:47;3.30;99.90
1546;DHT22;766;51.502;9.752;2024-02-26T06:21:15;3.30;99.90
1546;DHT22;766;51.502;9.752;2024-02-26T06:23:44;3.30;99.90
1546;DHT22;766;51.502;9.752;2024-02-26T06:26:12;3.30;99.90
1546;DHT22;766;51.502;9.752;2024-02-26T06:28:42;3.30;99.90
1546;DHT22;766;51.502;9.752;2024-02-26T06:31:10;3.40;99.90
1546;DHT22;766;51.502;9.752;2024-02-26T06:33:38;3.40;99.90
1546;DHT22;766;51.502;9.752;2024-02-26T06:36:07;3.40;99.90
1546;DHT22;766;51.502;9.752;2024-02-26T06:38:35;3.40;99.90
1546;DHT22;766;51.502;9.752;2024-02-26T06:41:03;3.40;99.90
1546;DHT22;766;51.502;9.752;2024-02-26T06:43:32;3.50;99.90
1546;DHT22;766;51.502;9.752;2024-02-26T06:46:01;3.50;99.90
1546;DHT22;766;51.502;9.752;2024-02-26T06:48:30;3.50;99.90
1546;DHT22;766;51.502;9.752;2024-02-26T06:50:58;3.50;99.90
1546;DHT22;766;51.502;9.752;2024-02-26T06:53:26;3.50;99.90
1546;DHT22;766;51.502;9.752;2024-02-26T06:55:54;3.50;99.90
1546;DHT22;766;51.502;9.752;2024-02-26T06:58:23;3.50;99.90
1546;DHT22;766;51.502;9.752;2024-02-26T07:00:51;3.60;99.90
1546;DHT22;766;51.502;9.752;2024-02-26T07:03:20;3.60;99.90
1546;DHT22;766;51.502;9.752;2024-02-26T07:05:50;3.60;99.90
1546;DHT22;766;51.502;9.752;2024-02-26T07:08:18;3.60;99.90
1546;DHT22;766;51.502;9.752;2024-02-26T07:10:48;3.70;99.90
1546;DHT22;766;51.502;9.752;2024-02-26T07:13:16;3.70;99.90
1546;DHT22;766;51.502;9.752;2024-02-26T07:15:44;3.70;99.90
1546;DHT22;766;51.502;9.752;2024-02-26T07:18:12;3.80;99.90
1546;DHT22;766;51.502;9.752;2024-02-26T07:20:42;3.80;99.90
1546;DHT22;766;51.502;9.752;2024-02-26T07:23:11;3.90;99.90
1546;DHT22;766;51.502;9.752;2024-02-26T07:25:39;3.90;99.90
1546;DHT22;766;51.502;9.752;2024-02-26T07:28:09;4.00;99.90
1546;DHT22;766;51.502;9.752;2024-02-26T07:30:37;4.10;99.90
1546;DHT22;766;51.502;9.752;2024-02-26T07:33:06;4.10;99.90
1546;DHT22;766;51.502;9.752;2024-02-26T07:35:34;4.20;99.90
1546;DHT22;766;51.502;9.752;2024-02-26T07:38:04;4.20;99.90
1546;DHT22;766;51.502;9.752;2024-02-26T07:40:40;4.30;99.90
1546;DHT22;766;51.502;9.752;2024-02-26T07:43:24;4.30;99.90
1546;DHT22;766;51.502;9.752;2024-02-26T07:45:52;4.30;99.90
1546;DHT22;766;51.502;9.752;2024-02-26T07:48:21;4.40;99.90
1546;DHT22;766;51.502;9.752;2024-02-26T07:50:49;4.40;99.90
1546;DHT22;766;51.502;9.752;2024-02-26T07:53:19;4.40;99.90
1546;DHT22;766;51.502;9.752;2024-02-26T07:55:47;4.40;99.90
1546;DHT22;766;51.502;9.752;2024-02-26T07:58:15;4.40;99.90
1546;DHT22;766;51.502;9.752;2024-02-26T08:00:44;4.40;99.90
1546;DHT22;766;51.502;9.752;2024-02-26T08:03:13;4.40;99.90
1546;DHT22;766;51.502;9.752;2024-02-26T08:05:43;4.40;99.90
1546;DHT22;766;51.502;9.752;2024-02-26T08:08:11;4.40;99.90
1546;DHT22;766;51.502;9.752;2024-02-26T08:10:40;4.40;99.90
1546;DHT22;766;51.502;9.752;2024-02-26T08:13:09;4.50;99.90
1546;DHT22;766;51.502;9.752;2024-02-26T08:15:37;4.50;99.90
1546;DHT22;766;51.502;9.752;2024-02-26T08:18:05;4.60;99.90
1546;DHT22;766;51.502;9.752;2024-02-26T08:20:33;4.60;99.90
1546;DHT22;766;51.502;9.752;2024-02-26T08:23:02;4.70;99.90
1546;DHT22;766;51.502;9.752;2024-02-26T08:25:30;4.70;99.90
1546;DHT22;766;51.502;9.752;2024-02-26T08:27:59;4.80;99.90
1546;DHT22;766;51.502;9.752;2024-02-26T08:30:28;4.80;99.90
1546;DHT22;766;51.502;9.752;2024-02-26T08:32:56;4.90;99.90
1546;DHT22;766;51.502;9.752;2024-02-26T08:35:24;4.90;99.90
1546;DHT22;766;51.502;9.752;2024-02-26T08:37:52;5.00;99.90
1546;DHT22;766;51.502;9.752;2024-02-26T08:40:21;5.10;99.90
1546;DHT22;766;51.502;9.752;2024-02-26T08:42:49;5.20;99.90
1546;DHT22;766;51.502;9.752;2024-02-26T08:45:18;5.30;99.90
1546;DHT22;766;51.502;9.752;2024-02-26T08:47:47;5.40;99.90
1546;DHT22;766;51.502;9.752;2024-02-26T08:50:15;5.40;99.90
1546;DHT22;766;51.502;9.752;2024-02-26T08:52:43;5.40;99.90
1546;DHT22;766;51.502;9.752;2024-02-26T08:55:15;5.50;99.90
1546;DHT22;766;51.502;9.752;2024-02-26T08:57:43;5.50;99.90
1546;DHT22;766;51.502;9.752;2024-02-26T09:00:12;5.50;99.90
1546;DHT22;766;51.502;9.752;2024-02-26T09:02:43;5.50;99.90
1546;DHT22;766;51.502;9.752;2024-02-26T09:05:13;5.60;99.90
1546;DHT22;766;51.502;9.752;2024-02-26T09:07:41;5.60;99.90
1546;DHT22;766;51.502;9.752;2024-02-26T09:10:10;5.70;99.90
1546;DHT22;766;51.502;9.752;2024-02-26T09:12:39;5.80;99.90
1546;DHT22;766;51.502;9.752;2024-02-26T09:15:12;5.90;99.90
1546;DHT22;766;51.502;9.752;2024-02-26T09:17:44;6.00;99.90
1546;DHT22;766;51.502;9.752;2024-02-26T09:20:15;6.20;99.90
1546;DHT22;766;51.502;9.752;2024-02-26T09:22:52;6.30;99.90
1546;DHT22;766;51.502;9.752;2024-02-26T09:25:22;6.50;99.90
1546;DHT22;766;51.502;9.752;2024-02-26T09:27:50;6.50;99.90
1546;DHT22;766;51.502;9.752;2024-02-26T09:30:22;6.50;99.90
1546;DHT22;766;51.502;9.752;2024-02-26T09:33:00;6.50;99.90
1546;DHT22;766;51.502;9.752;2024-02-26T09:35:30;6.80;99.90
1546;DHT22;766;51.502;9.752;2024-02-26T09:37:58;7.10;99.90
1546;DHT22;766;51.502;9.752;2024-02-26T09:40:35;7.10;99.90
1546;DHT22;766;51.502;9.752;2024-02-26T09:43:23;7.10;99.90
1546;DHT22;766;51.502;9.752;2024-02-26T09:45:54;7.30;99.90
1546;DHT22;766;51.502;9.752;2024-02-26T09:48:24;7.30;99.90
1546;DHT22;766;51.502;9.752;2024-02-26T09:50:53;7.30;99.90
1546;DHT22;766;51.502;9.752;2024-02-26T09:53:22;7.20;99.90
1546;DHT22;766;51.502;9.752;2024-02-26T09:55:50;7.10;99.90
1546;DHT22;766;51.502;9.752;2024-02-26T09:58:19;7.00;99.90
1546;DHT22;766;51.502;9.752;2024-02-26T10:00:53;7.00;99.90
1546;DHT22;766;51.502;9.752;2024-02-26T10:03:30;6.90;99.90
1546;DHT22;766;51.502;9.752;2024-02-26T10:06:00;6.90;99.90
1546;DHT22;766;51.502;9.752;2024-02-26T10:08:32;6.90;99.90
1546;DHT22;766;51.502;9.752;2024-02-26T10:11:01;7.00;99.90
1546;DHT22;766;51.502;9.752;2024-02-26T10:13:29;7.10;99.90
1546;DHT22;766;51.502;9.752;2024-02-26T10:15:58;7.10;99.90
1546;DHT22;766;51.502;9.752;2024-02-26T10:18:27;7.20;99.90
1546;DHT22;766;51.502;9.752;2024-02-26T10:21:07;7.10;99.90
1546;DHT22;766;51.502;9.752;2024-02-26T10:23:37;7.10;99.90
1546;DHT22;766;51.502;9.752;2024-02-26T10:26:05;7.10;99.90
1546;DHT22;766;51.502;9.752;2024-02-26T10:28:35;6.90;99.90
1546;DHT22;766;51.502;9.752;2024-02-26T10:31:04;7.00;99.90
1546;DHT22;766;51.502;9.752;2024-02-26T10:33:35;6.90;99.90
1546;DHT22;766;51.502;9.752;2024-02-26T10:36:08;6.80;99.90
1546;DHT22;766;51.502;9.752;2024-02-26T10:38:37;6.80;99.90
1546;DHT22;766;51.502;9.752;2024-02-26T10:41:06;6.80;99.90
1546;DHT22;766;51.502;9.752;2024-02-26T10:43:35;6.80;99.90
1546;DHT22;766;51.502;9.752;2024-02-26T10:46:06;6.70;99.90
1546;DHT22;766;51.502;9.752;2024-02-26T10:48:36;6.70;99.90
1546;DHT22;766;51.502;9.752;2024-02-26T10:51:05;6.60;99.90
1546;DHT22;766;51.502;9.752;2024-02-26T10:53:38;6.60;99.90
1546;DHT22;766;51.502;9.752;2024-02-26T10:56:09;6.60;99.90
1546;DHT22;766;51.502;9.752;2024-02-26T10:58:38;6.60;99.90
1546;DHT22;766;51.502;9.752;2024-02-26T11:01:07;6.60;99.90
1546;DHT22;766;51.502;9.752;2024-02-26T11:03:38;6.70;99.90
1546;DHT22;766;51.502;9.752;2024-02-26T11:06:07;6.70;99.90
1546;DHT22;766;51.502;9.752;2024-02-26T11:08:37;6.80;99.90
1546;DHT22;766;51.502;9.752;2024-02-26T11:11:06;6.80;99.90
1546;DHT22;766;51.502;9.752;2024-02-26T11:13:36;6.90;99.90
1546;DHT22;766;51.502;9.752;2024-02-26T11:16:11;6.90;99.90
1546;DHT22;766;51.502;9.752;2024-02-26T11:18:43;6.90;99.90
1546;DHT22;766;51.502;9.752;2024-02-26T11:21:15;6.90;99.90
1546;DHT22;766;51.502;9.752;2024-02-26T11:23:45;7.00;99.90
1546;DHT22;766;51.502;9.752;2024-02-26T11:26:17;7.10;99.90
1546;DHT22;766;51.502;9.752;2024-02-26T11:28:46;7.20;99.90
1546;DHT22;766;51.502;9.752;2024-02-26T11:31:15;7.10;99.90
1546;DHT22;766;51.502;9.752;2024-02-26T11:33:47;7.20;99.90
1546;DHT22;766;51.502;9.752;2024-02-26T11:36:17;7.10;99.90
1546;DHT22;766;51.502;9.752;2024-02-26T11:38:47;7.20;99.90
1546;DHT22;766;51.502;9.752;2024-02-26T11:41:18;7.30;99.90
1546;DHT22;766;51.502;9.752;2024-02-26T11:43:51;7.40;99.90
1546;DHT22;766;51.502;9.752;2024-02-26T11:46:26;7.50;99.90
1546;DHT22;766;51.502;9.752;2024-02-26T11:48:58;7.50;99.90
1546;DHT22;766;51.502;9.752;2024-02-26T11:51:32;7.50;99.90
1546;DHT22;766;51.502;9.752;2024-02-26T11:54:01;7.40;99.90
1546;DHT22;766;51.502;9.752;2024-02-26T11:56:29;7.40;99.90
1546;DHT22;766;51.502;9.752;2024-02-26T11:59:03;7.40;99.90
1546;DHT22;766;51.502;9.752;2024-02-26T12:01:45;7.30;99.90
1546;DHT22;766;51.502;9.752;2024-02-26T12:04:19;7.30;99.90
1546;DHT22;766;51.502;9.752;2024-02-26T12:06:52;7.30;99.90
1546;DHT22;766;51.502;9.752;2024-02-26T12:09:39;7.30;99.90
1546;DHT22;766;51.502;9.752;2024-02-26T12:12:09;7.30;99.90
1546;DHT22;766;51.502;9.752;2024-02-26T12:14:39;7.30;99.90
1546;DHT22;766;51.502;9.752;2024-02-26T12:17:18;7.40;99.90
1546;DHT22;766;51.502;9.752;2024-02-26T12:19:48;7.40;99.90
1546;DHT22;766;51.502;9.752;2024-02-26T12:22:17;7.40;99.90
1546;DHT22;766;51.502;9.752;2024-02-26T12:24:45;7.30;99.90
1546;DHT22;766;51.502;9.752;2024-02-26T12:27:16;7.40;99.90
1546;DHT22;766;51.502;9.752;2024-02-26T12:29:45;7.40;99.90
1546;DHT22;766;51.502;9.752;2024-02-26T12:32:13;7.40;99.90
1546;DHT22;766;51.502;9.752;2024-02-26T12:34:41;7.40;99.90
1546;DHT22;766;51.502;9.752;2024-02-26T12:37:11;7.40;99.90
1546;DHT22;766;51.502;9.752;2024-02-26T12:39:40;7.40;99.90
1546;DHT22;766;51.502;9.752;2024-02-26T12:42:09;7.50;99.90
1546;DHT22;766;51.502;9.752;2024-02-26T12:44:37;7.60;99.90
1546;DHT22;766;51.502;9.752;2024-02-26T12:47:05;7.80;99.90
1546;DHT22;766;51.502;9.752;2024-02-26T12:49:34;7.80;99.90
1546;DHT22;766;51.502;9.752;2024-02-26T12:52:05;7.80;99.90
1546;DHT22;766;51.502;9.752;2024-02-26T12:54:36;7.70;99.90
1546;DHT22;766;51.502;9.752;2024-02-26T12:57:06;7.80;99.90
1546;DHT22;766;51.502;9.752;2024-02-26T12:59:38;7.70;99.90
1546;DHT22;766;51.502;9.752;2024-02-26T13:02:07;7.50;99.90
1546;DHT22;766;51.502;9.752;2024-02-26T13:04:39;7.60;99.90
1546;DHT22;766;51.502;9.752;2024-02-26T13:07:07;7.60;99.90
1546;DHT22;766;51.502;9.752;2024-02-26T13:09:37;7.70;99.90
1546;DHT22;766;51.502;9.752;2024-02-26T13:12:07;7.60;99.90
1546;DHT22;766;51.502;9.752;2024-02-26T13:14:41;7.60;99.90
1546;DHT22;766;51.502;9.752;2024-02-26T13:17:10;7.60;99.90
1546;DHT22;766;51.502;9.752;2024-02-26T13:19:49;7.50;99.90
1546;DHT22;766;51.502;9.752;2024-02-26T13:22:20;7.50;99.90
1546;DHT22;766;51.502;9.752;2024-02-26T13:24:55;7.50;99.90
1546;DHT22;766;51.502;9.752;2024-02-26T13:27:24;7.50;99.90
1546;DHT22;766;51.502;9.752;2024-02-26T13:30:03;7.50;99.90
1546;DHT22;766;51.502;9.752;2024-02-26T13:32:33;7.40;99.90
1546;DHT22;766;51.502;9.752;2024-02-26T13:35:06;7.50;99.90
1546;DHT22;766;51.502;9.752;2024-02-26T13:37:36;7.50;99.90
1546;DHT22;766;51.502;9.752;2024-02-26T13:40:07;7.50;99.90
1546;DHT22;766;51.502;9.752;2024-02-26T13:42:36;7.60;99.90
1546;DHT22;766;51.502;9.752;2024-02-26T13:45:06;7.60;99.90
1546;DHT22;766;51.502;9.752;2024-02-26T13:47:35;7.70;99.90
1546;DHT22;766;51.502;9.752;2024-02-26T13:50:04;7.70;99.90
1546;DHT22;766;51.502;9.752;2024-02-26T13:52:34;7.70;99.90
1546;DHT22;766;51.502;9.752;2024-02-26T13:55:03;7.80;99.90
1546;DHT22;766;51.502;9.752;2024-02-26T13:57:33;7.90;99.90
1546;DHT22;766;51.502;9.752;2024-02-26T14:00:02;7.90;99.90
1546;DHT22;766;51.502;9.752;2024-02-26T14:02:31;8.00;99.90
1546;DHT22;766;51.502;9.752;2024-02-26T14:05:01;7.90;99.90
1546;DHT22;766;51.502;9.752;2024-02-26T14:07:31;7.90;99.90
1546;DHT22;766;51.502;9.752;2024-02-26T14:10:00;7.90;99.90
1546;DHT22;766;51.502;9.752;2024-02-26T14:12:28;7.90;99.90
1546;DHT22;766;51.502;9.752;2024-02-26T14:14:57;7.90;99.90
1546;DHT22;766;51.502;9.752;2024-02-26T14:17:27;7.90;99.90
1546;DHT22;766;51.502;9.752;2024-02-26T14:19:56;7.90;99.90
1546;DHT22;766;51.502;9.752;2024-02-26T14:22:25;7.80;99.90
1546;DHT22;766;51.502;9.752;2024-02-26T14:24:54;7.80;99.90
1546;DHT22;766;51.502;9.752;2024-02-26T14:27:22;7.90;99.90
1546;DHT22;766;51.502;9.752;2024-02-26T14:29:51;7.90;99.90
1546;DHT22;766;51.502;9.752;2024-02-26T14:32:21;7.90;99.90
1546;DHT22;766;51.502;9.752;2024-02-26T14:34:51;7.90;99.90
1546;DHT22;766;51.502;9.752;2024-02-26T14:37:20;7.90;99.90
1546;DHT22;766;51.502;9.752;2024-02-26T14:39:48;7.90;99.90
1546;DHT22;766;51.502;9.752;2024-02-26T14:42:18;8.00;99.90
1546;DHT22;766;51.502;9.752;2024-02-26T14:44:46;8.00;99.90
1546;DHT22;766;51.502;9.752;2024-02-26T14:47:15;8.00;99.90
1546;DHT22;766;51.502;9.752;2024-02-26T14:49:44;8.00;99.90
1546;DHT22;766;51.502;9.752;2024-02-26T14:52:15;8.00;99.90
1546;DHT22;766;51.502;9.752;2024-02-26T14:54:43;8.00;99.90
1546;DHT22;766;51.502;9.752;2024-02-26T14:57:11;8.00;99.90
1546;DHT22;766;51.502;9.752;2024-02-26T14:59:40;8.00;99.90
1546;DHT22;766;51.502;9.752;2024-02-26T15:02:09;8.00;99.90
1546;DHT22;766;51.502;9.752;2024-02-26T15:04:37;8.00;99.90
1546;DHT22;766;51.502;9.752;2024-02-26T15:07:07;8.00;99.90
1546;DHT22;766;51.502;9.752;2024-02-26T15:09:38;8.00;99.90
1546;DHT22;766;51.502;9.752;2024-02-26T15:12:07;8.00;99.90
1546;DHT22;766;51.502;9.752;2024-02-26T15:14:36;8.00;99.90
1546;DHT22;766;51.502;9.752;2024-02-26T15:17:04;8.00;99.90
1546;DHT22;766;51.502;9.752;2024-02-26T15:19:37;8.00;99.90
1546;DHT22;766;51.502;9.752;2024-02-26T15:22:07;8.00;99.90
1546;DHT22;766;51.502;9.752;2024-02-26T15:24:35;8.00;99.90
1546;DHT22;766;51.502;9.752;2024-02-26T15:27:04;8.00;99.90
1546;DHT22;766;51.502;9.752;2024-02-26T15:29:32;8.00;99.90
1546;DHT22;766;51.502;9.752;2024-02-26T15:32:03;8.10;99.90
1546;DHT22;766;51.502;9.752;2024-02-26T15:34:31;8.10;99.90
1546;DHT22;766;51.502;9.752;2024-02-26T15:36:59;8.00;99.90
1546;DHT22;766;51.502;9.752;2024-02-26T15:39:30;8.00;99.90
1546;DHT22;766;51.502;9.752;2024-02-26T15:41:59;8.00;99.90
1546;DHT22;766;51.502;9.752;2024-02-26T15:44:29;8.00;99.90
1546;DHT22;766;51.502;9.752;2024-02-26T15:46:57;8.00;99.90
1546;DHT22;766;51.502;9.752;2024-02-26T15:49:26;8.00;99.90
1546;DHT22;766;51.502;9.752;2024-02-26T15:51:54;8.00;99.90
1546;DHT22;766;51.502;9.752;2024-02-26T15:54:22;7.90;99.90
1546;DHT22;766;51.502;9.752;2024-02-26T15:56:52;7.90;99.90
1546;DHT22;766;51.502;9.752;2024-02-26T15:59:20;7.90;99.90
1546;DHT22;766;51.502;9.752;2024-02-26T16:01:49;7.90;99.90
1546;DHT22;766;51.502;9.752;2024-02-26T16:04:17;7.90;99.90
1546;DHT22;766;51.502;9.752;2024-02-26T16:06:50;7.90;99.90
1546;DHT22;766;51.502;9.752;2024-02-26T16:09:20;7.90;99.90
1546;DHT22;766;51.502;9.752;2024-02-26T16:11:48;7.90;99.90
1546;DHT22;766;51.502;9.752;2024-02-26T16:14:29;7.80;99.90
1546;DHT22;766;51.502;9.752;2024-02-26T16:17:04;7.80;99.90
1546;DHT22;766;51.502;9.752;2024-02-26T16:19:35;7.80;99.90
1546;DHT22;766;51.502;9.752;2024-02-26T16:22:04;7.70;99.90
1546;DHT22;766;51.502;9.752;2024-02-26T16:24:32;7.70;99.90
1546;DHT22;766;51.502;9.752;2024-02-26T16:27:00;7.70;99.90
1546;DHT22;766;51.502;9.752;2024-02-26T16:29:30;7.70;99.90
1546;DHT22;766;51.502;9.752;2024-02-26T16:31:58;7.70;99.90
1546;DHT22;766;51.502;9.752;2024-02-26T16:34:27;7.70;99.90
1546;DHT22;766;51.502;9.752;2024-02-26T16:36:55;7.70;99.90
1546;DHT22;766;51.502;9.752;2024-02-26T16:39:23;7.70;99.90
1546;DHT22;766;51.502;9.752;2024-02-26T16:41:51;7.60;99.90
1546;DHT22;766;51.502;9.752;2024-02-26T16:44:19;7.60;99.90
1546;DHT22;766;51.502;9.752;2024-02-26T16:46:49;7.60;99.90
1546;DHT22;766;51.502;9.752;2024-02-26T16:49:17;7.60;99.90